sensor_id;sensor_type;location;lat;lon;timestamp;temperature;humidity
17425;DHT22;8830;50.978;5.058;2022-12-16T00:01:06;-1.50;99.90
17425;DHT22;8830;50.978;5.058;2022-12-16T00:03:33;-1.60;99.90
17425;DHT22;8830;50.978;5.058;2022-12-16T00:06:00;-1.70;99.90
17425;DHT22;8830;50.978;5.058;2022-12-16T00:08:30;-1.70;99.90
17425;DHT22;8830;50.978;5.058;2022-12-16T00:10:59;-1.60;99.90
17425;DHT22;8830;50.978;5.058;2022-12-16T00:13:27;-1.70;99.90
17425;DHT22;8830;50.978;5.058;2022-12-16T00:15:54;-1.50;99.90
17425;DHT22;8830;50.978;5.058;2022-12-16T00:18:22;-1.40;99.90
17425;DHT22;8830;50.978;5.058;2022-12-16T00:20:51;-1.30;99.90
17425;DHT22;8830;50.978;5.058;2022-12-16T00:23:20;-1.30;99.90
17425;DHT22;8830;50.978;5.058;2022-12-16T00:25:47;-1.30;99.90
17425;DHT22;8830;50.978;5.058;2022-12-16T00:28:15;0.30;99.90
17425;DHT22;8830;50.978;5.058;2022-12-16T00:30:44;-1.10;99.90
17425;DHT22;8830;50.978;5.058;2022-12-16T00:33:10;-1.00;99.90
17425;DHT22;8830;50.978;5.058;2022-12-16T00:35:39;-0.30;99.90
17425;DHT22;8830;50.978;5.058;2022-12-16T00:38:08;-0.40;99.90
17425;DHT22;8830;50.978;5.058;2022-12-16T00:40:35;-0.90;99.90
17425;DHT22;8830;50.978;5.058;2022-12-16T00:43:02;-1.00;99.90
17425;DHT22;8830;50.978;5.058;2022-12-16T00:45:30;-0.80;99.90
17425;DHT22;8830;50.978;5.058;2022-12-16T00:47:57;-0.90;99.90
17425;DHT22;8830;50.978;5.058;2022-12-16T00:50:25;-0.30;99.90
17425;DHT22;8830;50.978;5.058;2022-12-16T00:52:53;-0.90;99.90
17425;DHT22;8830;50.978;5.058;2022-12-16T00:55:20;-1.00;99.90
17425;DHT22;8830;50.978;5.058;2022-12-16T00:57:47;0.00;99.90
17425;DHT22;8830;50.978;5.058;2022-12-16T01:00:16;-1.10;99.90
17425;DHT22;8830;50.978;5.058;2022-12-16T01:02:46;-1.00;99.90
17425;DHT22;8830;50.978;5.058;2022-12-16T01:05:16;-0.90;99.90
17425;DHT22;8830;50.978;5.058;2022-12-16T01:07:45;-0.80;99.90
17425;DHT22;8830;50.978;5.058;2022-12-16T01:10:14;0.40;99.90
17425;DHT22;8830;50.978;5.058;2022-12-16T01:12:41;-0.80;99.90
17425;DHT22;8830;50.978;5.058;2022-12-16T01:15:09;-2.10;99.90
17425;DHT22;8830;50.978;5.058;2022-12-16T01:17:37;-0.90;99.90
17425;DHT22;8830;50.978;5.058;2022-12-16T01:20:06;-1.00;99.90
17425;DHT22;8830;50.978;5.058;2022-12-16T01:22:33;-1.00;99.90
17425;DHT22;8830;50.978;5.058;2022-12-16T01:25:00;-0.90;99.90
17425;DHT22;8830;50.978;5.058;2022-12-16T01:27:31;0.50;99.90
17425;DHT22;8830;50.978;5.058;2022-12-16T01:29:58;0.70;99.90
17425;DHT22;8830;50.978;5.058;2022-12-16T01:34:53;-1.10;99.90
17425;DHT22;8830;50.978;5.058;2022-12-16T01:37:22;-0.70;99.90
17425;DHT22;8830;50.978;5.058;2022-12-16T01:42:20;-0.70;99.90
17425;DHT22;8830;50.978;5.058;2022-12-16T01:44:50;-0.80;99.90
17425;DHT22;8830;50.978;5.058;2022-12-16T01:47:22;-0.70;99.90
17425;DHT22;8830;50.978;5.058;2022-12-16T01:49:54;-0.60;99.90
17425;DHT22;8830;50.978;5.058;2022-12-16T01:52:27;-0.50;99.90
17425;DHT22;8830;50.978;5.058;2022-12-16T01:55:00;1.50;99.90
17425;DHT22;8830;50.978;5.058;2022-12-16T01:57:31;1.50;99.90
17425;DHT22;8830;50.978;5.058;2022-12-16T02:00:02;-0.50;99.90
17425;DHT22;8830;50.978;5.058;2022-12-16T02:02:31;1.40;99.90
17425;DHT22;8830;50.978;5.058;2022-12-16T02:04:59;-0.50;99.90
17425;DHT22;8830;50.978;5.058;2022-12-16T02:07:47;-0.70;99.90
17425;DHT22;8830;50.978;5.058;2022-12-16T02:10:18;-0.80;99.90
17425;DHT22;8830;50.978;5.058;2022-12-16T02:12:55;-0.70;99.90
17425;DHT22;8830;50.978;5.058;2022-12-16T02:15:40;-0.40;99.90
17425;DHT22;8830;50.978;5.058;2022-12-16T02:18:13;-0.60;99.90
17425;DHT22;8830;50.978;5.058;2022-12-16T02:24:46;-0.50;99.90
17425;DHT22;8830;50.978;5.058;2022-12-16T02:27:50;-0.60;99.90
17425;DHT22;8830;50.978;5.058;2022-12-16T02:30:56;-0.70;99.90
17425;DHT22;8830;50.978;5.058;2022-12-16T02:33:42;0.60;99.90
17425;DHT22;8830;50.978;5.058;2022-12-16T02:36:20;-0.80;99.90
17425;DHT22;8830;50.978;5.058;2022-12-16T02:38:54;-0.80;99.90
17425;DHT22;8830;50.978;5.058;2022-12-16T02:41:25;0.10;99.90
17425;DHT22;8830;50.978;5.058;2022-12-16T02:43:58;-0.80;99.90
17425;DHT22;8830;50.978;5.058;2022-12-16T02:46:38;0.50;99.90
17425;DHT22;8830;50.978;5.058;2022-12-16T02:49:06;-0.70;99.90
17425;DHT22;8830;50.978;5.058;2022-12-16T02:51:35;1.50;99.90
17425;DHT22;8830;50.978;5.058;2022-12-16T02:54:03;-0.50;99.90
17425;DHT22;8830;50.978;5.058;2022-12-16T02:56:45;-0.50;99.90
17425;DHT22;8830;50.978;5.058;2022-12-16T02:59:17;-0.50;99.90
17425;DHT22;8830;50.978;5.058;2022-12-16T03:01:56;-0.40;99.90
17425;DHT22;8830;50.978;5.058;2022-12-16T03:04:33;-0.40;99.90
17425;DHT22;8830;50.978;5.058;2022-12-16T03:07:01;-0.30;99.90
17425;DHT22;8830;50.978;5.058;2022-12-16T03:09:32;-0.30;99.90
17425;DHT22;8830;50.978;5.058;2022-12-16T03:12:03;-0.30;99.90
17425;DHT22;8830;50.978;5.058;2022-12-16T03:14:33;-0.30;99.90
17425;DHT22;8830;50.978;5.058;2022-12-16T03:17:02;0.60;99.90
17425;DHT22;8830;50.978;5.058;2022-12-16T03:19:30;2.40;99.90
17425;DHT22;8830;50.978;5.058;2022-12-16T03:22:01;-0.20;99.90
17425;DHT22;8830;50.978;5.058;2022-12-16T03:24:30;-0.20;99.90
17425;DHT22;8830;50.978;5.058;2022-12-16T03:27:04;1.20;99.90
17425;DHT22;8830;50.978;5.058;2022-12-16T03:29:40;1.70;99.90
17425;DHT22;8830;50.978;5.058;2022-12-16T03:32:13;-0.30;99.90
17425;DHT22;8830;50.978;5.058;2022-12-16T03:34:45;1.00;99.90
17425;DHT22;8830;50.978;5.058;2022-12-16T03:37:14;-0.30;99.90
17425;DHT22;8830;50.978;5.058;2022-12-16T03:39:45;-0.30;99.90
17425;DHT22;8830;50.978;5.058;2022-12-16T03:42:14;-0.30;99.90
17425;DHT22;8830;50.978;5.058;2022-12-16T03:44:42;-0.10;99.90
17425;DHT22;8830;50.978;5.058;2022-12-16T03:47:12;-0.10;99.90
17425;DHT22;8830;50.978;5.058;2022-12-16T03:49:39;0.00;99.90
17425;DHT22;8830;50.978;5.058;2022-12-16T03:52:07;0.00;99.90
17425;DHT22;8830;50.978;5.058;2022-12-16T03:54:34;0.00;99.90
17425;DHT22;8830;50.978;5.058;2022-12-16T03:57:01;0.00;99.90
17425;DHT22;8830;50.978;5.058;2022-12-16T03:59:29;0.00;99.90
17425;DHT22;8830;50.978;5.058;2022-12-16T04:01:56;1.20;99.90
17425;DHT22;8830;50.978;5.058;2022-12-16T04:04:27;0.00;99.90
17425;DHT22;8830;50.978;5.058;2022-12-16T04:06:56;2.30;99.90
17425;DHT22;8830;50.978;5.058;2022-12-16T04:09:40;1.10;99.90
17425;DHT22;8830;50.978;5.058;2022-12-16T04:12:08;0.00;99.90
17425;DHT22;8830;50.978;5.058;2022-12-16T04:14:52;0.10;99.90
17425;DHT22;8830;50.978;5.058;2022-12-16T04:17:37;0.10;99.90
17425;DHT22;8830;50.978;5.058;2022-12-16T04:20:20;-0.10;99.90
17425;DHT22;8830;50.978;5.058;2022-12-16T04:23:08;0.00;99.90
17425;DHT22;8830;50.978;5.058;2022-12-16T04:25:54;0.00;99.90
17425;DHT22;8830;50.978;5.058;2022-12-16T04:28:21;0.00;99.90
17425;DHT22;8830;50.978;5.058;2022-12-16T04:30:48;0.00;99.90
17425;DHT22;8830;50.978;5.058;2022-12-16T04:33:15;0.00;99.90
17425;DHT22;8830;50.978;5.058;2022-12-16T04:36:01;-0.10;99.90
17425;DHT22;8830;50.978;5.058;2022-12-16T04:38:46;-0.10;99.90
17425;DHT22;8830;50.978;5.058;2022-12-16T04:41:45;0.60;99.90
17425;DHT22;8830;50.978;5.058;2022-12-16T04:44:29;-0.20;99.90
17425;DHT22;8830;50.978;5.058;2022-12-16T04:47:14;-0.10;99.90
17425;DHT22;8830;50.978;5.058;2022-12-16T04:49:59;-0.10;99.90
17425;DHT22;8830;50.978;5.058;2022-12-16T04:52:45;-0.10;99.90
17425;DHT22;8830;50.978;5.058;2022-12-16T04:55:29;-0.20;99.90
17425;DHT22;8830;50.978;5.058;2022-12-16T04:58:13;0.70;99.90
17425;DHT22;8830;50.978;5.058;2022-12-16T05:00:58;-0.10;99.90
17425;DHT22;8830;50.978;5.058;2022-12-16T05:03:42;-0.10;99.90
17425;DHT22;8830;50.978;5.058;2022-12-16T05:06:29;-0.10;99.90
17425;DHT22;8830;50.978;5.058;2022-12-16T05:09:14;-0.10;99.90
17425;DHT22;8830;50.978;5.058;2022-12-16T05:12:00;-0.20;99.90
17425;DHT22;8830;50.978;5.058;2022-12-16T05:14:44;-0.10;99.90
17425;DHT22;8830;50.978;5.058;2022-12-16T05:17:29;-0.30;99.90
17425;DHT22;8830;50.978;5.058;2022-12-16T05:20:27;-0.20;99.90
17425;DHT22;8830;50.978;5.058;2022-12-16T05:23:12;1.00;99.90
17425;DHT22;8830;50.978;5.058;2022-12-16T05:25:58;-0.10;99.90
17425;DHT22;8830;50.978;5.058;2022-12-16T05:28:43;-0.10;99.90
17425;DHT22;8830;50.978;5.058;2022-12-16T05:31:30;-0.20;99.90
17425;DHT22;8830;50.978;5.058;2022-12-16T05:34:15;-0.10;99.90
17425;DHT22;8830;50.978;5.058;2022-12-16T05:36:59;0.00;99.90
17425;DHT22;8830;50.978;5.058;2022-12-16T05:39:44;-0.10;99.90
17425;DHT22;8830;50.978;5.058;2022-12-16T05:42:30;-0.10;99.90
17425;DHT22;8830;50.978;5.058;2022-12-16T05:45:14;0.00;99.90
17425;DHT22;8830;50.978;5.058;2022-12-16T05:47:59;-0.10;99.90
17425;DHT22;8830;50.978;5.058;2022-12-16T05:50:46;-0.10;99.90
17425;DHT22;8830;50.978;5.058;2022-12-16T05:53:30;1.80;99.90
17425;DHT22;8830;50.978;5.058;2022-12-16T05:56:14;0.00;99.90
17425;DHT22;8830;50.978;5.058;2022-12-16T05:58:59;0.00;99.90
17425;DHT22;8830;50.978;5.058;2022-12-16T06:01:43;1.10;99.90
17425;DHT22;8830;50.978;5.058;2022-12-16T06:04:28;0.20;99.90
17425;DHT22;8830;50.978;5.058;2022-12-16T06:07:09;0.20;99.90
17425;DHT22;8830;50.978;5.058;2022-12-16T06:10:08;0.30;99.90
17425;DHT22;8830;50.978;5.058;2022-12-16T06:12:52;0.40;99.90
17425;DHT22;8830;50.978;5.058;2022-12-16T06:15:38;0.40;99.90
17425;DHT22;8830;50.978;5.058;2022-12-16T06:18:23;0.40;99.90
17425;DHT22;8830;50.978;5.058;2022-12-16T06:21:07;0.50;99.90
17425;DHT22;8830;50.978;5.058;2022-12-16T06:23:52;0.60;99.90
17425;DHT22;8830;50.978;5.058;2022-12-16T06:26:36;0.70;99.90
17425;DHT22;8830;50.978;5.058;2022-12-16T06:29:21;0.80;99.90
17425;DHT22;8830;50.978;5.058;2022-12-16T06:32:07;0.80;99.90
17425;DHT22;8830;50.978;5.058;2022-12-16T06:34:51;0.80;99.90
17425;DHT22;8830;50.978;5.058;2022-12-16T06:37:36;0.80;99.90
17425;DHT22;8830;50.978;5.058;2022-12-16T06:40:22;2.10;99.90
17425;DHT22;8830;50.978;5.058;2022-12-16T06:43:06;0.90;99.90
17425;DHT22;8830;50.978;5.058;2022-12-16T06:45:51;0.90;99.90
17425;DHT22;8830;50.978;5.058;2022-12-16T06:48:37;0.90;99.90
17425;DHT22;8830;50.978;5.058;2022-12-16T06:51:22;0.90;99.90
17425;DHT22;8830;50.978;5.058;2022-12-16T06:54:08;1.40;99.90
17425;DHT22;8830;50.978;5.058;2022-12-16T06:56:52;0.90;99.90
17425;DHT22;8830;50.978;5.058;2022-12-16T06:59:48;1.00;99.90
17425;DHT22;8830;50.978;5.058;2022-12-16T07:02:45;1.00;99.90
17425;DHT22;8830;50.978;5.058;2022-12-16T07:05:31;1.20;99.90
17425;DHT22;8830;50.978;5.058;2022-12-16T07:08:16;0.90;99.90
17425;DHT22;8830;50.978;5.058;2022-12-16T07:11:00;2.20;99.90
17425;DHT22;8830;50.978;5.058;2022-12-16T07:13:45;0.80;99.90
17425;DHT22;8830;50.978;5.058;2022-12-16T07:16:30;0.80;99.90
17425;DHT22;8830;50.978;5.058;2022-12-16T07:19:15;0.80;99.90
17425;DHT22;8830;50.978;5.058;2022-12-16T07:22:01;0.70;99.90
17425;DHT22;8830;50.978;5.058;2022-12-16T07:24:45;0.60;99.90
17425;DHT22;8830;50.978;5.058;2022-12-16T07:27:31;0.60;99.90
17425;DHT22;8830;50.978;5.058;2022-12-16T07:30:16;0.80;99.90
17425;DHT22;8830;50.978;5.058;2022-12-16T07:33:02;0.80;99.90
17425;DHT22;8830;50.978;5.058;2022-12-16T07:35:48;0.60;99.90
17425;DHT22;8830;50.978;5.058;2022-12-16T07:38:34;0.50;99.90
17425;DHT22;8830;50.978;5.058;2022-12-16T07:41:19;0.50;99.90
17425;DHT22;8830;50.978;5.058;2022-12-16T07:44:05;0.50;99.90
17425;DHT22;8830;50.978;5.058;2022-12-16T07:46:49;0.60;99.90
17425;DHT22;8830;50.978;5.058;2022-12-16T07:49:34;0.60;99.90
17425;DHT22;8830;50.978;5.058;2022-12-16T07:52:18;1.50;99.90
17425;DHT22;8830;50.978;5.058;2022-12-16T07:55:05;0.80;99.90
17425;DHT22;8830;50.978;5.058;2022-12-16T07:57:50;0.50;99.90
17425;DHT22;8830;50.978;5.058;2022-12-16T08:00:35;0.50;99.90
17425;DHT22;8830;50.978;5.058;2022-12-16T08:03:25;0.50;99.90
17425;DHT22;8830;50.978;5.058;2022-12-16T08:06:09;0.50;99.90
17425;DHT22;8830;50.978;5.058;2022-12-16T08:08:54;0.40;99.90
17425;DHT22;8830;50.978;5.058;2022-12-16T08:11:40;0.60;99.90
17425;DHT22;8830;50.978;5.058;2022-12-16T08:14:28;0.50;99.90
17425;DHT22;8830;50.978;5.058;2022-12-16T08:17:13;0.60;99.90
17425;DHT22;8830;50.978;5.058;2022-12-16T08:19:59;0.60;99.90
17425;DHT22;8830;50.978;5.058;2022-12-16T08:22:44;0.60;99.90
17425;DHT22;8830;50.978;5.058;2022-12-16T08:25:30;0.60;99.90
17425;DHT22;8830;50.978;5.058;2022-12-16T08:28:18;0.70;99.90
17425;DHT22;8830;50.978;5.058;2022-12-16T08:31:03;0.80;99.90
17425;DHT22;8830;50.978;5.058;2022-12-16T08:33:50;0.90;99.90
17425;DHT22;8830;50.978;5.058;2022-12-16T08:36:41;0.90;99.90
17425;DHT22;8830;50.978;5.058;2022-12-16T08:39:32;0.90;99.90
17425;DHT22;8830;50.978;5.058;2022-12-16T08:42:19;0.90;99.90
17425;DHT22;8830;50.978;5.058;2022-12-16T08:45:07;0.90;99.90
17425;DHT22;8830;50.978;5.058;2022-12-16T08:47:51;1.00;99.90
17425;DHT22;8830;50.978;5.058;2022-12-16T08:50:36;1.00;99.90
17425;DHT22;8830;50.978;5.058;2022-12-16T08:53:21;1.10;99.90
17425;DHT22;8830;50.978;5.058;2022-12-16T08:56:12;1.10;99.90
17425;DHT22;8830;50.978;5.058;2022-12-16T08:58:58;1.20;99.90
17425;DHT22;8830;50.978;5.058;2022-12-16T09:01:44;1.20;99.90
17425;DHT22;8830;50.978;5.058;2022-12-16T09:04:29;1.20;99.90
17425;DHT22;8830;50.978;5.058;2022-12-16T09:07:14;1.30;99.90
17425;DHT22;8830;50.978;5.058;2022-12-16T09:09:59;1.40;99.90
17425;DHT22;8830;50.978;5.058;2022-12-16T09:12:43;1.50;99.90
17425;DHT22;8830;50.978;5.058;2022-12-16T09:15:28;1.60;99.90
17425;DHT22;8830;50.978;5.058;2022-12-16T09:18:16;1.60;99.90
17425;DHT22;8830;50.978;5.058;2022-12-16T09:21:05;1.70;99.90
17425;DHT22;8830;50.978;5.058;2022-12-16T09:23:50;1.70;99.90
17425;DHT22;8830;50.978;5.058;2022-12-16T09:26:35;1.80;99.90
17425;DHT22;8830;50.978;5.058;2022-12-16T09:29:22;1.80;99.90
17425;DHT22;8830;50.978;5.058;2022-12-16T09:32:08;1.80;99.90
17425;DHT22;8830;50.978;5.058;2022-12-16T09:34:56;1.80;99.90
17425;DHT22;8830;50.978;5.058;2022-12-16T09:37:45;1.80;99.90
17425;DHT22;8830;50.978;5.058;2022-12-16T09:40:30;1.80;99.90
17425;DHT22;8830;50.978;5.058;2022-12-16T09:43:25;1.90;99.90
17425;DHT22;8830;50.978;5.058;2022-12-16T09:46:15;1.90;99.90
17425;DHT22;8830;50.978;5.058;2022-12-16T09:49:13;2.00;99.90
17425;DHT22;8830;50.978;5.058;2022-12-16T09:52:01;2.20;99.90
17425;DHT22;8830;50.978;5.058;2022-12-16T09:54:48;2.40;99.90
17425;DHT22;8830;50.978;5.058;2022-12-16T09:57:36;2.50;99.90
17425;DHT22;8830;50.978;5.058;2022-12-16T10:00:23;2.50;99.90
17425;DHT22;8830;50.978;5.058;2022-12-16T10:03:15;2.40;99.90
17425;DHT22;8830;50.978;5.058;2022-12-16T10:06:09;2.50;99.90
17425;DHT22;8830;50.978;5.058;2022-12-16T10:09:02;2.60;99.90
17425;DHT22;8830;50.978;5.058;2022-12-16T10:11:54;2.60;99.90
17425;DHT22;8830;50.978;5.058;2022-12-16T10:14:47;2.70;99.90
17425;DHT22;8830;50.978;5.058;2022-12-16T10:17:40;2.70;99.90
17425;DHT22;8830;50.978;5.058;2022-12-16T10:20:32;2.80;99.90
17425;DHT22;8830;50.978;5.058;2022-12-16T10:23:21;2.70;99.90
17425;DHT22;8830;50.978;5.058;2022-12-16T10:26:17;2.60;99.90
17425;DHT22;8830;50.978;5.058;2022-12-16T10:29:11;2.60;99.90
17425;DHT22;8830;50.978;5.058;2022-12-16T10:32:04;2.70;99.90
17425;DHT22;8830;50.978;5.058;2022-12-16T10:34:54;4.10;99.90
17425;DHT22;8830;50.978;5.058;2022-12-16T10:37:39;2.70;99.90
17425;DHT22;8830;50.978;5.058;2022-12-16T10:40:29;2.80;99.90
17425;DHT22;8830;50.978;5.058;2022-12-16T10:43:21;2.80;99.90
17425;DHT22;8830;50.978;5.058;2022-12-16T10:46:22;2.80;99.90
17425;DHT22;8830;50.978;5.058;2022-12-16T10:49:13;2.90;99.90
17425;DHT22;8830;50.978;5.058;2022-12-16T10:51:58;3.30;99.90
17425;DHT22;8830;50.978;5.058;2022-12-16T10:55:06;3.20;99.90
17425;DHT22;8830;50.978;5.058;2022-12-16T10:58:15;4.40;99.90
17425;DHT22;8830;50.978;5.058;2022-12-16T11:01:22;2.90;99.90
17425;DHT22;8830;50.978;5.058;2022-12-16T11:04:29;3.10;99.90
17425;DHT22;8830;50.978;5.058;2022-12-16T11:07:29;3.10;99.90
17425;DHT22;8830;50.978;5.058;2022-12-16T11:10:39;3.00;99.90
17425;DHT22;8830;50.978;5.058;2022-12-16T11:13:26;3.20;99.90
17425;DHT22;8830;50.978;5.058;2022-12-16T11:16:14;3.10;99.90
17425;DHT22;8830;50.978;5.058;2022-12-16T11:19:04;3.20;99.90
17425;DHT22;8830;50.978;5.058;2022-12-16T11:22:05;3.30;99.90
17425;DHT22;8830;50.978;5.058;2022-12-16T11:25:03;3.40;99.90
17425;DHT22;8830;50.978;5.058;2022-12-16T11:28:01;3.30;99.90
17425;DHT22;8830;50.978;5.058;2022-12-16T11:30:55;3.50;99.90
17425;DHT22;8830;50.978;5.058;2022-12-16T11:34:22;3.40;99.90
17425;DHT22;8830;50.978;5.058;2022-12-16T11:37:08;3.40;99.90
17425;DHT22;8830;50.978;5.058;2022-12-16T11:39:53;3.50;99.90
17425;DHT22;8830;50.978;5.058;2022-12-16T11:42:40;3.50;99.90
17425;DHT22;8830;50.978;5.058;2022-12-16T11:45:29;3.50;99.90
17425;DHT22;8830;50.978;5.058;2022-12-16T11:48:20;3.40;99.90
17425;DHT22;8830;50.978;5.058;2022-12-16T11:51:12;3.30;99.90
17425;DHT22;8830;50.978;5.058;2022-12-16T11:54:06;3.30;99.90
17425;DHT22;8830;50.978;5.058;2022-12-16T11:56:51;3.20;99.90
17425;DHT22;8830;50.978;5.058;2022-12-16T11:59:41;3.30;99.90
17425;DHT22;8830;50.978;5.058;2022-12-16T12:02:31;3.30;99.90
17425;DHT22;8830;50.978;5.058;2022-12-16T12:05:17;3.80;99.90
17425;DHT22;8830;50.978;5.058;2022-12-16T12:08:11;3.30;99.90
17425;DHT22;8830;50.978;5.058;2022-12-16T12:11:05;3.20;99.90
17425;DHT22;8830;50.978;5.058;2022-12-16T12:14:02;3.20;99.90
17425;DHT22;8830;50.978;5.058;2022-12-16T12:17:01;3.10;99.90
17425;DHT22;8830;50.978;5.058;2022-12-16T12:19:56;3.10;99.90
17425;DHT22;8830;50.978;5.058;2022-12-16T12:22:44;3.00;99.90
17425;DHT22;8830;50.978;5.058;2022-12-16T12:25:36;3.00;99.90
17425;DHT22;8830;50.978;5.058;2022-12-16T12:28:33;3.00;99.90
17425;DHT22;8830;50.978;5.058;2022-12-16T12:31:30;3.00;99.90
17425;DHT22;8830;50.978;5.058;2022-12-16T12:34:25;3.10;99.90
17425;DHT22;8830;50.978;5.058;2022-12-16T12:37:21;3.30;99.90
17425;DHT22;8830;50.978;5.058;2022-12-16T12:40:29;3.70;99.90
17425;DHT22;8830;50.978;5.058;2022-12-16T12:43:26;3.30;99.90
17425;DHT22;8830;50.978;5.058;2022-12-16T12:46:22;3.20;99.90
17425;DHT22;8830;50.978;5.058;2022-12-16T12:49:15;3.80;99.90
17425;DHT22;8830;50.978;5.058;2022-12-16T12:52:10;2.90;99.90
17425;DHT22;8830;50.978;5.058;2022-12-16T12:55:05;2.90;99.90
17425;DHT22;8830;50.978;5.058;2022-12-16T12:58:08;3.70;99.90
17425;DHT22;8830;50.978;5.058;2022-12-16T13:00:57;3.70;99.90
17425;DHT22;8830;50.978;5.058;2022-12-16T13:03:47;4.60;99.90
17425;DHT22;8830;50.978;5.058;2022-12-16T13:06:34;3.10;99.90
17425;DHT22;8830;50.978;5.058;2022-12-16T13:09:30;3.10;99.90
17425;DHT22;8830;50.978;5.058;2022-12-16T13:12:27;3.10;99.90
17425;DHT22;8830;50.978;5.058;2022-12-16T13:15:38;3.10;99.90
17425;DHT22;8830;50.978;5.058;2022-12-16T13:18:30;3.10;99.90
17425;DHT22;8830;50.978;5.058;2022-12-16T13:21:43;4.20;99.90
17425;DHT22;8830;50.978;5.058;2022-12-16T13:24:47;3.10;99.90
17425;DHT22;8830;50.978;5.058;2022-12-16T13:27:54;3.00;99.90
17425;DHT22;8830;50.978;5.058;2022-12-16T13:30:40;3.00;99.90
17425;DHT22;8830;50.978;5.058;2022-12-16T13:33:49;3.00;99.90
17425;DHT22;8830;50.978;5.058;2022-12-16T13:36:36;3.10;99.90
17425;DHT22;8830;50.978;5.058;2022-12-16T13:39:24;3.00;99.90
17425;DHT22;8830;50.978;5.058;2022-12-16T13:45:36;2.90;99.90
17425;DHT22;8830;50.978;5.058;2022-12-16T13:48:38;2.90;99.90
17425;DHT22;8830;50.978;5.058;2022-12-16T13:51:55;2.90;99.90
17425;DHT22;8830;50.978;5.058;2022-12-16T13:54:48;3.00;99.90
17425;DHT22;8830;50.978;5.058;2022-12-16T13:57:37;2.90;99.90
17425;DHT22;8830;50.978;5.058;2022-12-16T14:00:25;2.90;99.90
17425;DHT22;8830;50.978;5.058;2022-12-16T14:03:18;2.90;99.90
17425;DHT22;8830;50.978;5.058;2022-12-16T14:06:08;2.80;99.90
17425;DHT22;8830;50.978;5.058;2022-12-16T14:08:56;2.80;99.90
17425;DHT22;8830;50.978;5.058;2022-12-16T14:11:49;2.80;99.90
17425;DHT22;8830;50.978;5.058;2022-12-16T14:14:40;2.80;99.90
17425;DHT22;8830;50.978;5.058;2022-12-16T14:17:31;2.70;99.90
17425;DHT22;8830;50.978;5.058;2022-12-16T14:20:21;2.70;99.90
17425;DHT22;8830;50.978;5.058;2022-12-16T14:23:28;2.60;99.90
17425;DHT22;8830;50.978;5.058;2022-12-16T14:26:20;4.70;99.90
17425;DHT22;8830;50.978;5.058;2022-12-16T14:29:14;2.70;99.90
17425;DHT22;8830;50.978;5.058;2022-12-16T14:32:18;2.60;99.90
17425;DHT22;8830;50.978;5.058;2022-12-16T14:35:03;2.50;99.90
17425;DHT22;8830;50.978;5.058;2022-12-16T14:37:49;2.50;99.90
17425;DHT22;8830;50.978;5.058;2022-12-16T14:40:33;2.50;99.90
17425;DHT22;8830;50.978;5.058;2022-12-16T14:43:21;2.40;99.90
17425;DHT22;8830;50.978;5.058;2022-12-16T14:46:22;2.40;99.90
17425;DHT22;8830;50.978;5.058;2022-12-16T14:49:17;2.40;99.90
17425;DHT22;8830;50.978;5.058;2022-12-16T14:52:17;2.40;99.90
17425;DHT22;8830;50.978;5.058;2022-12-16T14:55:15;2.30;99.90
17425;DHT22;8830;50.978;5.058;2022-12-16T14:58:07;2.20;99.90
17425;DHT22;8830;50.978;5.058;2022-12-16T15:00:57;2.30;99.90
17425;DHT22;8830;50.978;5.058;2022-12-16T15:03:44;2.20;99.90
17425;DHT22;8830;50.978;5.058;2022-12-16T15:06:35;2.10;99.90
17425;DHT22;8830;50.978;5.058;2022-12-16T15:09:25;2.10;99.90
17425;DHT22;8830;50.978;5.058;2022-12-16T15:12:14;2.00;99.90
17425;DHT22;8830;50.978;5.058;2022-12-16T15:15:03;1.90;99.90
17425;DHT22;8830;50.978;5.058;2022-12-16T15:17:52;1.90;99.90
17425;DHT22;8830;50.978;5.058;2022-12-16T15:20:44;1.80;99.90
17425;DHT22;8830;50.978;5.058;2022-12-16T15:23:33;1.80;99.90
17425;DHT22;8830;50.978;5.058;2022-12-16T15:26:19;1.70;99.90
17425;DHT22;8830;50.978;5.058;2022-12-16T15:29:22;1.60;99.90
17425;DHT22;8830;50.978;5.058;2022-12-16T15:32:29;1.60;99.90
17425;DHT22;8830;50.978;5.058;2022-12-16T15:35:26;1.50;99.90
17425;DHT22;8830;50.978;5.058;2022-12-16T15:38:18;1.50;99.90
17425;DHT22;8830;50.978;5.058;2022-12-16T15:41:13;1.50;99.90
17425;DHT22;8830;50.978;5.058;2022-12-16T15:44:00;1.40;99.90
17425;DHT22;8830;50.978;5.058;2022-12-16T15:46:47;2.90;99.90
17425;DHT22;8830;50.978;5.058;2022-12-16T15:49:34;1.50;99.90
17425;DHT22;8830;50.978;5.058;2022-12-16T15:52:32;1.60;99.90
17425;DHT22;8830;50.978;5.058;2022-12-16T15:55:23;1.60;99.90
17425;DHT22;8830;50.978;5.058;2022-12-16T15:58:13;1.70;99.90
17425;DHT22;8830;50.978;5.058;2022-12-16T16:00:58;1.60;99.90
17425;DHT22;8830;50.978;5.058;2022-12-16T16:03:51;1.60;99.90
17425;DHT22;8830;50.978;5.058;2022-12-16T16:06:37;1.60;99.90
17425;DHT22;8830;50.978;5.058;2022-12-16T16:09:27;1.50;99.90
17425;DHT22;8830;50.978;5.058;2022-12-16T16:12:14;1.50;99.90
17425;DHT22;8830;50.978;5.058;2022-12-16T16:14:59;2.10;99.90
17425;DHT22;8830;50.978;5.058;2022-12-16T16:17:44;1.40;99.90
17425;DHT22;8830;50.978;5.058;2022-12-16T16:20:29;1.40;99.90
17425;DHT22;8830;50.978;5.058;2022-12-16T16:23:14;1.40;99.90
17425;DHT22;8830;50.978;5.058;2022-12-16T16:26:00;1.30;99.90
17425;DHT22;8830;50.978;5.058;2022-12-16T16:28:44;1.30;99.90
17425;DHT22;8830;50.978;5.058;2022-12-16T16:31:29;1.20;99.90
17425;DHT22;8830;50.978;5.058;2022-12-16T16:34:13;1.20;99.90
17425;DHT22;8830;50.978;5.058;2022-12-16T16:36:58;1.10;99.90
17425;DHT22;8830;50.978;5.058;2022-12-16T16:39:43;1.10;99.90
17425;DHT22;8830;50.978;5.058;2022-12-16T16:42:29;1.10;99.90
17425;DHT22;8830;50.978;5.058;2022-12-16T16:45:14;1.10;99.90
17425;DHT22;8830;50.978;5.058;2022-12-16T16:48:05;1.20;99.90
17425;DHT22;8830;50.978;5.058;2022-12-16T16:50:55;1.20;99.90
17425;DHT22;8830;50.978;5.058;2022-12-16T16:53:39;1.20;99.90
17425;DHT22;8830;50.978;5.058;2022-12-16T16:56:24;1.20;99.90
17425;DHT22;8830;50.978;5.058;2022-12-16T16:59:11;1.20;99.90
17425;DHT22;8830;50.978;5.058;2022-12-16T17:01:56;1.20;99.90
17425;DHT22;8830;50.978;5.058;2022-12-16T17:04:40;1.10;99.90
17425;DHT22;8830;50.978;5.058;2022-12-16T17:07:25;1.10;99.90
17425;DHT22;8830;50.978;5.058;2022-12-16T17:10:09;1.00;99.90
17425;DHT22;8830;50.978;5.058;2022-12-16T17:12:54;1.00;99.90
17425;DHT22;8830;50.978;5.058;2022-12-16T17:15:40;1.20;99.90
17425;DHT22;8830;50.978;5.058;2022-12-16T17:18:24;1.00;99.90
17425;DHT22;8830;50.978;5.058;2022-12-16T17:21:22;1.10;99.90
17425;DHT22;8830;50.978;5.058;2022-12-16T17:24:06;1.00;99.90
17425;DHT22;8830;50.978;5.058;2022-12-16T17:26:51;0.90;99.90
17425;DHT22;8830;50.978;5.058;2022-12-16T17:29:36;0.90;99.90
17425;DHT22;8830;50.978;5.058;2022-12-16T17:32:22;0.90;99.90
17425;DHT22;8830;50.978;5.058;2022-12-16T17:35:08;0.90;99.90
17425;DHT22;8830;50.978;5.058;2022-12-16T17:37:54;0.80;99.90
17425;DHT22;8830;50.978;5.058;2022-12-16T17:40:39;0.70;99.90
17425;DHT22;8830;50.978;5.058;2022-12-16T17:43:24;0.70;99.90
17425;DHT22;8830;50.978;5.058;2022-12-16T17:46:09;0.60;99.90
17425;DHT22;8830;50.978;5.058;2022-12-16T17:48:57;0.60;99.90
17425;DHT22;8830;50.978;5.058;2022-12-16T17:51:42;0.70;99.90
17425;DHT22;8830;50.978;5.058;2022-12-16T17:54:28;0.60;99.90
17425;DHT22;8830;50.978;5.058;2022-12-16T17:57:13;0.60;99.90
17425;DHT22;8830;50.978;5.058;2022-12-16T17:59:58;0.60;99.90
17425;DHT22;8830;50.978;5.058;2022-12-16T18:02:57;0.50;99.90